createdAt,value
2022-08-23T00:00:22.754Z,4.65
2022-08-23T00:02:55.838Z,4.70
2022-08-23T00:05:26.547Z,4.80
2022-08-23T00:07:57.116Z,5.20
2022-08-23T00:10:27.504Z,4.78
2022-08-23T00:12:58.092Z,5.10
2022-08-23T00:15:29.487Z,5.47
2022-08-23T00:18:01.851Z,5.35
2022-08-23T00:20:32.557Z,5.25
2022-08-23T00:23:03.148Z,4.92
2022-08-23T00:25:35.179Z,5.05
2022-08-23T00:28:05.767Z,5.20
2022-08-23T00:30:38.556Z,5.05
2022-08-23T00:33:12.606Z,5.30
2022-08-23T00:35:43.318Z,5.33
2022-08-23T00:38:33.162Z,6.22
2022-08-23T00:40:50.582Z,5.30
2022-08-23T00:43:45.005Z,5.75
2022-08-23T00:46:42.708Z,5.25
2022-08-23T00:49:15.497Z,5.03
2022-08-23T00:51:55.124Z,4.50
2022-08-23T00:54:27.954Z,4.80
2022-08-23T00:57:01.035Z,4.67
2022-08-23T00:59:33.268Z,4.40
2022-08-23T01:02:04.530Z,4.58
2022-08-23T01:04:38.192Z,4.78
2022-08-23T01:07:46.875Z,4.87
2022-08-23T01:10:29.053Z,4.45
2022-08-23T01:13:05.608Z,4.15
2022-08-23T01:15:42.021Z,4.50
2022-08-23T01:18:14.709Z,4.30
2022-08-23T01:20:51.168Z,4.60
2022-08-23T01:23:33.766Z,4.17
2022-08-23T01:26:05.238Z,4.60
2022-08-23T01:28:36.402Z,4.58
2022-08-23T01:31:07.524Z,4.47
2022-08-23T01:33:40.553Z,4.25
2022-08-23T01:36:14.112Z,4.70
2022-08-23T01:38:46.291Z,4.50
2022-08-23T01:41:17.916Z,4.42
2022-08-23T01:43:48.399Z,4.10
2022-08-23T01:46:21.913Z,3.80
2022-08-23T01:48:55.975Z,3.77
2022-08-23T01:51:26.820Z,3.80
2022-08-23T01:53:58.314Z,3.60
2022-08-23T01:56:38.774Z,3.50
2022-08-23T01:59:03.888Z,3.95
2022-08-23T02:01:35.540Z,3.85
2022-08-23T02:04:06.596Z,3.75
2022-08-23T02:06:37.157Z,3.00
2022-08-23T02:09:17.186Z,3.70
2022-08-23T02:11:43.415Z,3.40
2022-08-23T02:14:17.028Z,3.58
2022-08-23T02:17:02.805Z,3.72
2022-08-23T02:19:23.020Z,3.90
2022-08-23T02:21:53.697Z,4.20
2022-08-23T02:24:26.215Z,3.58
2022-08-23T02:26:59.679Z,3.52
2022-08-23T02:29:32.516Z,3.90
2022-08-23T02:32:04.611Z,4.00
2022-08-23T02:34:36.510Z,3.70
2022-08-23T02:37:10.681Z,4.22
2022-08-23T02:39:42.491Z,3.62
2022-08-23T02:42:14.359Z,4.17
2022-08-23T02:44:44.961Z,3.72
2022-08-23T02:47:16.802Z,3.75
2022-08-23T02:49:47.376Z,3.90
2022-08-23T02:52:17.852Z,3.70
2022-08-23T02:54:48.304Z,4.10
2022-08-23T02:57:18.750Z,4.15
2022-08-23T02:59:49.698Z,3.60
2022-08-23T03:02:20.955Z,4.00
2022-08-23T03:04:51.794Z,4.30
2022-08-23T03:07:22.370Z,3.83
2022-08-23T03:09:53.093Z,4.30
2022-08-23T03:12:24.365Z,4.33
2022-08-23T03:14:54.730Z,4.00
2022-08-23T03:17:25.258Z,4.05
2022-08-23T03:19:55.615Z,3.92
2022-08-23T03:22:28.015Z,4.10
2022-08-23T03:24:58.633Z,3.85
2022-08-23T03:27:30.776Z,3.98
2022-08-23T03:30:01.511Z,4.40
2022-08-23T03:32:32.418Z,4.17
2022-08-23T03:35:05.153Z,4.25
2022-08-23T03:37:38.229Z,4.47
2022-08-23T03:40:11.652Z,4.50
2022-08-23T03:42:42.181Z,4.70
2022-08-23T03:45:12.893Z,4.55
2022-08-23T03:47:44.045Z,5.00
2022-08-23T03:50:15.358Z,4.60
2022-08-23T03:52:46.981Z,4.87
2022-08-23T03:55:18.065Z,5.05
2022-08-23T03:57:49.310Z,5.00
2022-08-23T04:00:20.269Z,4.37
2022-08-23T04:02:51.069Z,4.80
2022-08-23T04:05:22.409Z,5.03
2022-08-23T04:07:53.797Z,4.50
2022-08-23T04:10:24.611Z,4.87
2022-08-23T04:12:55.200Z,5.12
2022-08-23T04:15:25.786Z,4.83
2022-08-23T04:17:56.211Z,4.80
2022-08-23T04:20:27.207Z,5.10
2022-08-23T04:22:59.412Z,5.22
2022-08-23T04:25:34.837Z,5.33
2022-08-23T04:28:04.078Z,5.28
2022-08-23T04:30:34.928Z,5.10
2022-08-23T04:33:10.587Z,5.15
2022-08-23T04:35:41.378Z,4.67
2022-08-23T04:38:18.138Z,5.20
2022-08-23T04:41:02.905Z,5.45
2022-08-23T04:43:35.029Z,4.87
2022-08-23T04:46:05.596Z,5.28
2022-08-23T04:48:36.659Z,5.50
2022-08-23T04:51:07.730Z,5.78
2022-08-23T04:53:40.189Z,5.33
2022-08-23T04:56:11.263Z,6.05
2022-08-23T04:58:41.788Z,5.00
2022-08-23T05:01:17.226Z,5.30
2022-08-23T05:03:49.222Z,5.20
2022-08-23T05:06:19.979Z,5.30
2022-08-23T05:08:50.810Z,5.47
2022-08-23T05:11:21.595Z,5.67
2022-08-23T05:13:52.266Z,5.03
2022-08-23T05:16:23.103Z,5.75
2022-08-23T05:18:57.891Z,5.12
2022-08-23T05:21:28.421Z,5.12
2022-08-23T05:23:58.973Z,6.12
2022-08-23T05:26:29.598Z,5.45
2022-08-23T05:29:00.251Z,5.47
2022-08-23T05:31:31.603Z,5.80
2022-08-23T05:34:03.844Z,5.70
2022-08-23T05:36:34.695Z,5.28
2022-08-23T05:39:07.050Z,5.83
2022-08-23T05:41:38.678Z,6.00
2022-08-23T05:44:11.849Z,4.92
2022-08-23T05:46:46.309Z,5.50
2022-08-23T05:49:21.117Z,5.10
2022-08-23T05:51:51.495Z,5.62
2022-08-23T05:54:22.738Z,5.67
2022-08-23T05:56:56.430Z,5.22
2022-08-23T05:59:27.553Z,5.12
2022-08-23T06:01:59.207Z,4.90
2022-08-23T06:04:29.729Z,5.67
2022-08-23T06:07:00.173Z,5.12
2022-08-23T06:09:30.584Z,5.10
2022-08-23T06:12:02.618Z,4.80
2022-08-23T06:14:33.279Z,5.12
2022-08-23T06:17:03.940Z,4.95
2022-08-23T06:19:35.139Z,5.15
2022-08-23T06:22:07.383Z,5.47
2022-08-23T06:24:37.965Z,5.58
2022-08-23T06:27:09.814Z,5.35
2022-08-23T06:29:41.474Z,5.50
2022-08-23T06:32:13.342Z,5.53
2022-08-23T06:34:48.572Z,5.42
2022-08-23T06:37:19.234Z,5.30
2022-08-23T06:39:49.789Z,4.92
2022-08-23T06:42:40.988Z,5.25
2022-08-23T06:44:59.362Z,4.97
2022-08-23T06:47:32.757Z,5.62
2022-08-23T06:50:03.281Z,5.10
2022-08-23T06:52:33.889Z,5.00
2022-08-23T06:55:04.588Z,5.28
2022-08-23T06:57:35.132Z,4.60
2022-08-23T07:00:08.708Z,4.80
2022-08-23T07:02:40.341Z,4.40
2022-08-23T07:05:11.080Z,5.00
2022-08-23T07:07:51.525Z,4.58
2022-08-23T07:10:22.160Z,4.55
2022-08-23T07:12:55.129Z,4.95
2022-08-23T07:15:25.603Z,4.85
2022-08-23T07:17:56.322Z,4.92
2022-08-23T07:20:26.871Z,4.40
2022-08-23T07:23:00.924Z,4.45
2022-08-23T07:25:32.533Z,4.80
2022-08-23T07:28:03.245Z,4.35
2022-08-23T07:30:34.043Z,4.15
2022-08-23T07:33:07.296Z,4.50
2022-08-23T07:35:40.411Z,5.10
2022-08-23T07:38:13.903Z,4.28
2022-08-23T07:40:46.786Z,4.30
2022-08-23T07:43:18.936Z,4.03
2022-08-23T07:45:50.258Z,4.00
2022-08-23T07:48:37.311Z,4.17
2022-08-23T07:51:01.023Z,4.08
2022-08-23T07:53:38.125Z,3.85
2022-08-23T07:56:08.330Z,4.00
2022-08-23T07:58:39.490Z,4.58
2022-08-23T08:01:16.790Z,3.85
2022-08-23T08:03:53.108Z,3.67
2022-08-23T08:06:38.512Z,3.58
2022-08-23T08:09:10.386Z,3.65
2022-08-23T08:11:43.476Z,3.90
2022-08-23T08:14:14.417Z,3.60
2022-08-23T08:16:48.390Z,3.80
2022-08-23T08:19:19.957Z,3.72
2022-08-23T08:21:51.355Z,3.70
2022-08-23T08:24:22.024Z,4.22
2022-08-23T08:26:52.774Z,4.00
2022-08-23T08:29:23.543Z,3.77
2022-08-23T08:31:54.544Z,3.77
2022-08-23T08:34:25.743Z,3.40
2022-08-23T08:36:58.959Z,3.22
2022-08-23T08:39:32.233Z,2.95
2022-08-23T08:42:17.732Z,3.33
2022-08-23T08:45:09.049Z,3.40
2022-08-23T08:47:45.668Z,2.80
2022-08-23T08:50:31.878Z,3.60
2022-08-23T08:53:05.945Z,2.92
2022-08-23T08:55:45.148Z,3.00
2022-08-23T08:58:26.002Z,3.35
2022-08-23T09:00:59.255Z,3.60
2022-08-23T09:03:32.997Z,3.40
2022-08-23T09:06:07.128Z,3.30
2022-08-23T09:09:02.169Z,3.52
2022-08-23T09:11:52.663Z,3.05
2022-08-23T09:14:47.529Z,3.00
2022-08-23T09:17:24.788Z,3.12
2022-08-23T09:20:05.148Z,3.08
2022-08-23T09:22:46.675Z,3.30
2022-08-23T09:25:17.839Z,2.60
2022-08-23T09:27:48.457Z,3.70
2022-08-23T09:30:20.327Z,2.75
2022-08-23T09:32:52.303Z,3.05
2022-08-23T09:35:25.712Z,3.10
2022-08-23T09:38:05.459Z,2.90
2022-08-23T09:40:41.523Z,3.20
2022-08-23T09:43:20.389Z,3.10
2022-08-23T09:45:57.089Z,3.27
2022-08-23T09:48:42.639Z,3.35
2022-08-23T09:51:34.976Z,2.98
2022-08-23T09:54:08.441Z,3.10
2022-08-23T09:56:45.248Z,3.10
2022-08-23T09:59:28.459Z,3.58
2022-08-23T10:02:03.198Z,3.33
2022-08-23T10:04:42.582Z,3.35
2022-08-23T10:07:30.836Z,3.17
2022-08-23T10:10:26.538Z,3.52
2022-08-23T10:12:59.001Z,3.30
2022-08-23T10:15:49.834Z,3.10
2022-08-23T10:18:40.049Z,3.47
2022-08-23T10:21:27.722Z,3.70
2022-08-23T10:24:13.957Z,3.75
2022-08-23T10:27:04.148Z,3.72
2022-08-23T10:29:41.458Z,3.60
2022-08-23T10:32:27.153Z,3.70
2022-08-23T10:35:03.856Z,3.80
2022-08-23T10:37:47.491Z,3.75
2022-08-23T10:40:40.477Z,3.55
2022-08-23T10:43:27.461Z,3.72
2022-08-23T10:46:00.796Z,3.62
2022-08-23T10:48:37.530Z,3.22
2022-08-23T10:51:21.186Z,3.60
2022-08-23T10:53:52.413Z,3.60
2022-08-23T10:56:24.145Z,4.55
2022-08-23T10:59:06.430Z,3.80
2022-08-23T11:02:01.258Z,3.75
2022-08-23T11:04:40.822Z,3.37
2022-08-23T11:07:24.603Z,3.20
2022-08-23T11:10:19.553Z,3.10
2022-08-23T11:12:56.220Z,2.62
2022-08-23T11:15:35.751Z,3.05
2022-08-23T11:18:13.723Z,2.90
2022-08-23T11:20:56.945Z,3.00
2022-08-23T11:23:42.591Z,2.70
2022-08-23T11:26:24.858Z,3.00
2022-08-23T11:29:10.891Z,3.15
2022-08-23T11:31:59.394Z,2.77
2022-08-23T11:34:33.498Z,2.90
2022-08-23T11:37:26.438Z,2.80
2022-08-23T11:40:00.135Z,2.85
2022-08-23T11:42:45.985Z,2.85
2022-08-23T11:45:40.633Z,3.12
2022-08-23T11:48:43.498Z,2.80
2022-08-23T11:51:32.374Z,2.90
2022-08-23T11:54:30.432Z,3.17
2022-08-23T11:57:21.702Z,3.05
2022-08-23T12:00:06.242Z,3.05
2022-08-23T12:02:44.374Z,3.50
2022-08-23T12:05:30.887Z,2.90
2022-08-23T12:08:08.143Z,3.30
2022-08-23T12:10:47.663Z,3.40
2022-08-23T12:13:24.009Z,3.00
2022-08-23T12:16:17.543Z,2.87
2022-08-23T12:18:54.599Z,2.95
2022-08-23T12:21:37.262Z,2.60
2022-08-23T12:24:26.104Z,2.92
2022-08-23T12:27:02.165Z,2.72
2022-08-23T12:29:41.516Z,2.90
2022-08-23T12:32:44.358Z,2.70
2022-08-23T12:35:42.177Z,2.90
2022-08-23T12:38:22.621Z,2.83
2022-08-23T12:40:56.691Z,2.55
2022-08-23T12:43:30.516Z,2.90
2022-08-23T12:46:02.791Z,2.92
2022-08-23T12:48:36.039Z,2.37
2022-08-23T12:51:12.542Z,4.25
2022-08-23T12:53:45.856Z,2.60
2022-08-23T12:56:32.103Z,2.67
2022-08-23T12:59:07.833Z,2.33
2022-08-23T13:01:41.900Z,2.52
2022-08-23T13:04:15.659Z,2.35
2022-08-23T13:06:58.294Z,2.60
2022-08-23T13:09:32.429Z,2.20
2022-08-23T13:12:03.662Z,2.37
2022-08-23T13:14:37.685Z,2.25
2022-08-23T13:17:27.444Z,2.75
2022-08-23T13:20:10.679Z,2.15
2022-08-23T13:22:57.819Z,2.33
2022-08-23T13:25:36.926Z,2.15
2022-08-23T13:28:28.923Z,2.70
2022-08-23T13:31:02.949Z,2.47
2022-08-23T13:33:36.839Z,1.98
2022-08-23T13:36:17.753Z,2.20
2022-08-23T13:38:48.790Z,2.20
2022-08-23T13:41:38.402Z,2.25
2022-08-23T13:44:09.855Z,2.40
2022-08-23T13:46:45.688Z,2.65
2022-08-23T13:49:19.938Z,2.20
2022-08-23T13:54:52.492Z,2.60
2022-08-23T13:57:19.906Z,2.50
2022-08-23T13:59:53.835Z,2.40
2022-08-23T14:02:25.642Z,2.37
2022-08-23T14:04:56.844Z,2.55
2022-08-23T14:07:27.592Z,2.27
2022-08-23T14:09:58.664Z,2.37
2022-08-23T14:12:32.956Z,3.00
2022-08-23T14:15:07.022Z,2.50
2022-08-23T14:17:40.828Z,2.33
2022-08-23T14:22:47.332Z,2.12
2022-08-23T14:25:18.848Z,2.17
2022-08-23T14:27:51.015Z,2.40
2022-08-23T14:30:29.406Z,2.47
2022-08-23T14:33:01.802Z,2.50
2022-08-23T14:35:32.831Z,2.10
2022-08-23T14:38:14.155Z,2.30
2022-08-23T14:40:37.722Z,2.40
2022-08-23T14:43:10.435Z,2.27
2022-08-23T14:45:42.013Z,2.25
2022-08-23T14:48:16.416Z,2.35
2022-08-23T14:50:48.981Z,2.30
2022-08-23T14:53:22.458Z,3.27
2022-08-23T14:56:19.941Z,2.98
2022-08-23T14:58:27.440Z,2.37
2022-08-23T15:00:58.115Z,2.60
2022-08-23T15:03:29.563Z,2.47
2022-08-23T15:06:01.789Z,2.50
2022-08-23T15:08:32.322Z,2.87
2022-08-23T15:13:41.707Z,2.92
2022-08-23T15:16:12.557Z,2.67
2022-08-23T15:18:48.292Z,2.47
2022-08-23T15:21:25.490Z,2.62
2022-08-23T15:23:57.365Z,3.10
2022-08-23T15:26:32.468Z,2.87
2022-08-23T15:29:03.833Z,3.02
2022-08-23T15:31:34.762Z,3.00
2022-08-23T15:34:05.666Z,2.72
2022-08-23T15:36:42.171Z,2.72
2022-08-23T15:39:12.938Z,3.05
2022-08-23T15:41:45.259Z,3.20
2022-08-23T15:44:16.864Z,3.15
2022-08-23T15:46:49.981Z,2.83
2022-08-23T15:49:21.021Z,2.80
2022-08-23T15:51:51.347Z,3.80
2022-08-23T15:54:21.945Z,3.00
2022-08-23T15:56:53.381Z,2.77
2022-08-23T15:59:23.960Z,2.65
2022-08-23T16:01:54.395Z,2.80
2022-08-23T16:04:24.825Z,2.60
2022-08-23T16:06:55.533Z,2.75
2022-08-23T16:09:26.690Z,2.90
2022-08-23T16:12:00.258Z,2.42
2022-08-23T16:14:31.274Z,2.90
2022-08-23T16:17:02.405Z,3.00
2022-08-23T16:19:33.030Z,2.90
2022-08-23T16:22:03.739Z,3.17
2022-08-23T16:24:34.255Z,2.77
2022-08-23T16:27:07.429Z,2.80
2022-08-23T16:29:40.166Z,2.90
2022-08-23T16:32:10.596Z,3.00
2022-08-23T16:34:41.070Z,2.80
2022-08-23T16:37:11.611Z,2.55
2022-08-23T16:39:43.940Z,2.80
2022-08-23T16:42:14.758Z,2.83
2022-08-23T16:44:45.347Z,2.90
2022-08-23T16:47:18.247Z,3.02
2022-08-23T16:49:48.779Z,2.80
2022-08-23T16:52:20.665Z,3.08
2022-08-23T16:54:51.765Z,2.90
2022-08-23T16:57:22.195Z,3.05
2022-08-23T16:59:52.731Z,3.27
2022-08-23T17:02:34.844Z,3.10
2022-08-23T17:05:08.227Z,3.27
2022-08-23T17:07:39.384Z,3.12
2022-08-23T17:10:12.185Z,3.35
2022-08-23T17:12:47.031Z,3.30
2022-08-23T17:15:21.330Z,3.60
2022-08-23T17:17:52.031Z,3.70
2022-08-23T17:20:25.382Z,3.60
2022-08-23T17:22:56.863Z,3.30
2022-08-23T17:25:27.967Z,3.45
2022-08-23T17:27:58.956Z,3.10
2022-08-23T17:30:30.165Z,3.10
2022-08-23T17:33:00.868Z,3.60
2022-08-23T17:35:33.671Z,3.67
2022-08-23T17:38:06.463Z,3.70
2022-08-23T17:40:40.271Z,3.33
2022-08-23T17:43:12.451Z,3.40
2022-08-23T17:45:46.501Z,15.00
2022-08-23T17:48:21.924Z,3.45
2022-08-23T17:50:55.207Z,4.17
2022-08-23T17:53:26.236Z,3.92
2022-08-23T17:55:57.371Z,3.65
2022-08-23T17:58:28.487Z,3.47
2022-08-23T18:00:59.013Z,3.83
2022-08-23T18:03:31.186Z,3.87
2022-08-23T18:06:02.405Z,3.50
2022-08-23T18:08:34.476Z,4.17
2022-08-23T18:11:05.103Z,3.95
2022-08-23T18:13:35.735Z,4.37
2022-08-23T18:16:07.058Z,4.37
2022-08-23T18:18:37.938Z,3.90
2022-08-23T18:21:12.709Z,4.60
2022-08-23T18:23:43.246Z,4.70
2022-08-23T18:26:32.669Z,4.53
2022-08-23T18:29:05.278Z,4.60
2022-08-23T18:31:35.907Z,4.25
2022-08-23T18:34:06.711Z,4.45
2022-08-23T18:36:37.536Z,4.42
2022-08-23T18:39:09.008Z,4.20
2022-08-23T18:41:39.790Z,4.30
2022-08-23T18:44:11.778Z,4.30
2022-08-23T18:46:44.097Z,4.10
2022-08-23T18:49:15.831Z,3.83
2022-08-23T18:51:46.363Z,4.08
2022-08-23T18:54:16.950Z,3.80
2022-08-23T18:56:47.672Z,3.80
2022-08-23T18:59:19.274Z,4.28
2022-08-23T19:01:50.181Z,4.10
2022-08-23T19:04:20.734Z,4.10
2022-08-23T19:06:52.782Z,4.50
2022-08-23T19:09:23.871Z,3.83
2022-08-23T19:11:54.497Z,4.12
2022-08-23T19:14:24.924Z,4.10
2022-08-23T19:16:55.493Z,4.53
2022-08-23T19:19:26.010Z,4.15
2022-08-23T19:21:56.791Z,4.10
2022-08-23T19:24:28.728Z,4.08
2022-08-23T19:26:59.462Z,4.12
2022-08-23T19:29:29.906Z,3.95
2022-08-23T19:32:01.047Z,3.83
2022-08-23T19:34:31.569Z,4.05
2022-08-23T19:37:02.151Z,4.00
2022-08-23T19:39:32.648Z,4.37
2022-08-23T19:42:09.685Z,4.20
2022-08-23T19:44:37.965Z,3.92
2022-08-23T19:47:19.356Z,4.70
2022-08-23T19:49:40.829Z,4.78
2022-08-23T19:52:11.408Z,4.08
2022-08-23T19:54:41.821Z,4.20
2022-08-23T19:57:13.291Z,4.30
2022-08-23T19:59:44.093Z,4.25
2022-08-23T20:02:14.695Z,4.35
2022-08-23T20:04:45.161Z,4.35
2022-08-23T20:07:15.799Z,4.45
2022-08-23T20:09:47.797Z,4.40
2022-08-23T20:12:18.962Z,4.47
2022-08-23T20:14:49.724Z,3.90
2022-08-23T20:17:20.203Z,4.08
2022-08-23T20:19:51.124Z,4.58
2022-08-23T20:22:40.114Z,4.42
2022-08-23T20:25:10.795Z,4.17
2022-08-23T20:27:41.300Z,4.58
2022-08-23T20:30:13.575Z,4.20
2022-08-23T20:32:45.044Z,4.28
2022-08-23T20:35:15.422Z,4.80
2022-08-23T20:37:45.910Z,8.25
2022-08-23T20:40:16.751Z,6.37
2022-08-23T20:42:47.338Z,4.37
2022-08-23T20:45:17.764Z,4.22
2022-08-23T20:47:48.347Z,4.05
2022-08-23T20:50:19.679Z,4.12
2022-08-23T20:52:50.267Z,4.08
2022-08-23T20:55:20.784Z,4.45
2022-08-23T20:57:51.236Z,4.58
2022-08-23T21:00:22.126Z,4.42
2022-08-23T21:02:52.560Z,4.80
2022-08-23T21:05:23.967Z,4.62
2022-08-23T21:07:56.742Z,4.12
2022-08-23T21:10:27.495Z,3.95
2022-08-23T21:12:58.006Z,4.55
2022-08-23T21:15:28.469Z,4.58
2022-08-23T21:17:58.858Z,4.80
2022-08-23T21:20:33.683Z,3.98
2022-08-23T21:23:04.591Z,4.17
2022-08-23T21:25:36.177Z,4.22
2022-08-23T21:28:06.547Z,4.15
2022-08-23T21:30:37.250Z,3.92
2022-08-23T21:33:09.273Z,4.20
2022-08-23T21:35:39.631Z,4.42
2022-08-23T21:38:10.291Z,4.58
2022-08-23T21:40:42.110Z,3.65
2022-08-23T21:43:12.573Z,3.77
2022-08-23T21:45:43.336Z,4.00
2022-08-23T21:48:13.793Z,4.12
2022-08-23T21:50:45.214Z,3.70
2022-08-23T21:53:16.818Z,4.00
2022-08-23T21:55:47.890Z,4.08
2022-08-23T21:58:18.414Z,4.25
2022-08-23T22:00:49.146Z,3.90
2022-08-23T22:03:19.701Z,4.40
2022-08-23T22:05:50.689Z,3.60
2022-08-23T22:08:21.279Z,4.15
2022-08-23T22:10:57.928Z,3.98
2022-08-23T22:13:25.119Z,4.10
2022-08-23T22:15:56.170Z,3.92
2022-08-23T22:18:26.654Z,6.87
2022-08-23T22:20:58.294Z,4.28
2022-08-23T22:23:31.394Z,4.08
2022-08-23T22:26:04.091Z,4.42
2022-08-23T22:28:35.949Z,4.15
2022-08-23T22:31:08.400Z,4.15
2022-08-23T22:33:38.891Z,3.92
2022-08-23T22:36:12.363Z,4.30
2022-08-23T22:38:43.177Z,4.50
2022-08-23T22:41:18.637Z,4.42
2022-08-23T22:43:49.130Z,4.28
2022-08-23T22:46:19.743Z,3.98
2022-08-23T22:48:50.311Z,4.37
2022-08-23T22:51:24.916Z,4.12
2022-08-23T22:53:59.824Z,5.12
2022-08-23T22:56:33.703Z,4.30
2022-08-23T22:59:04.312Z,4.30
2022-08-23T23:01:38.060Z,4.20
2022-08-23T23:04:11.296Z,4.30
2022-08-23T23:06:42.485Z,4.35
2022-08-23T23:09:14.457Z,3.90
2022-08-23T23:11:45.701Z,4.12
2022-08-23T23:14:18.438Z,4.08
2022-08-23T23:16:50.025Z,4.15
2022-08-23T23:19:39.560Z,4.70
2022-08-23T23:22:10.259Z,3.98
2022-08-23T23:24:41.294Z,4.00
2022-08-23T23:27:11.844Z,4.40
2022-08-23T23:29:43.992Z,4.05
2022-08-23T23:32:14.860Z,4.05
2022-08-23T23:34:45.486Z,4.30
2022-08-23T23:37:15.932Z,4.30
2022-08-23T23:39:46.614Z,4.53
2022-08-23T23:42:17.224Z,4.05
2022-08-23T23:44:47.678Z,4.60
2022-08-23T23:47:18.370Z,4.45
2022-08-23T23:49:48.829Z,4.22
2022-08-23T23:52:19.210Z,4.03
2022-08-23T23:54:50.034Z,4.42
2022-08-23T23:57:23.481Z,4.28
2022-08-23T23:59:55.220Z,4.80
